Terminal Aerodrome Forecast
Issued by NWS Caribou, ME

Home | Current Version | Previous Version | Text Only | Print | Product List | Glossary On
Versions: 1 2 3 4 5 6 7 8 9 10 11 12 13 14
000
FTUS41 KCAR 202320
TAFBGR
TAF
KBGR 202320Z 2100/2124 35010KT P6SM SKC
     FM210400 VRB03KT P6SM SCT200
     FM212000 18005KT P6SM FEW120 BKN200=

USA.gov is the U.S. government's official web portal to all federal, state and local government web resources and services.